sensor_id;sensor_type;location;lat;lon;timestamp;P1;durP1;ratioP1;P2;durP2;ratioP2
4430;SDS011;2228;48.140;11.488;2023-02-28T00:01:08;5.35;;;3.40;;
4430;SDS011;2228;48.140;11.488;2023-02-28T00:03:35;6.07;;;3.60;;
4430;SDS011;2228;48.140;11.488;2023-02-28T00:06:03;6.15;;;3.60;;
4430;SDS011;2228;48.140;11.488;2023-02-28T00:08:30;6.18;;;3.30;;
4430;SDS011;2228;48.140;11.488;2023-02-28T00:11:00;6.65;;;3.42;;
4430;SDS011;2228;48.140;11.488;2023-02-28T00:13:29;6.30;;;3.78;;
4430;SDS011;2228;48.140;11.488;2023-02-28T00:16:00;5.75;;;3.38;;
4430;SDS011;2228;48.140;11.488;2023-02-28T00:18:28;6.22;;;3.25;;
4430;SDS011;2228;48.140;11.488;2023-02-28T00:20:55;5.17;;;3.33;;
4430;SDS011;2228;48.140;11.488;2023-02-28T00:23:22;6.40;;;3.58;;
4430;SDS011;2228;48.140;11.488;2023-02-28T00:25:49;5.70;;;3.47;;
4430;SDS011;2228;48.140;11.488;2023-02-28T00:28:17;4.18;;;3.20;;
4430;SDS011;2228;48.140;11.488;2023-02-28T00:30:45;6.20;;;3.60;;
4430;SDS011;2228;48.140;11.488;2023-02-28T00:33:12;4.72;;;3.35;;
4430;SDS011;2228;48.140;11.488;2023-02-28T00:35:41;7.47;;;3.80;;
4430;SDS011;2228;48.140;11.488;2023-02-28T00:38:08;6.30;;;3.60;;
4430;SDS011;2228;48.140;11.488;2023-02-28T00:40:35;7.35;;;3.70;;
4430;SDS011;2228;48.140;11.488;2023-02-28T00:43:02;5.35;;;3.58;;
4430;SDS011;2228;48.140;11.488;2023-02-28T00:45:30;5.65;;;3.40;;
4430;SDS011;2228;48.140;11.488;2023-02-28T00:47:58;8.10;;;4.00;;
4430;SDS011;2228;48.140;11.488;2023-02-28T00:50:25;6.10;;;3.80;;
4430;SDS011;2228;48.140;11.488;2023-02-28T00:52:52;6.47;;;3.50;;
4430;SDS011;2228;48.140;11.488;2023-02-28T00:55:19;6.85;;;3.90;;
4430;SDS011;2228;48.140;11.488;2023-02-28T00:57:46;6.65;;;3.95;;
4430;SDS011;2228;48.140;11.488;2023-02-28T01:00:13;7.40;;;3.90;;
4430;SDS011;2228;48.140;11.488;2023-02-28T01:02:40;4.82;;;3.70;;
4430;SDS011;2228;48.140;11.488;2023-02-28T01:05:09;5.10;;;3.60;;
4430;SDS011;2228;48.140;11.488;2023-02-28T01:07:36;6.88;;;3.28;;
4430;SDS011;2228;48.140;11.488;2023-02-28T01:10:03;4.80;;;3.58;;
4430;SDS011;2228;48.140;11.488;2023-02-28T01:12:31;6.13;;;4.00;;
4430;SDS011;2228;48.140;11.488;2023-02-28T01:14:58;8.70;;;3.80;;
4430;SDS011;2228;48.140;11.488;2023-02-28T01:17:25;7.40;;;4.15;;
4430;SDS011;2228;48.140;11.488;2023-02-28T01:19:52;9.40;;;3.92;;
4430;SDS011;2228;48.140;11.488;2023-02-28T01:22:21;6.63;;;4.10;;
4430;SDS011;2228;48.140;11.488;2023-02-28T01:24:48;6.55;;;3.92;;
4430;SDS011;2228;48.140;11.488;2023-02-28T01:27:15;8.15;;;4.35;;
4430;SDS011;2228;48.140;11.488;2023-02-28T01:29:42;7.25;;;4.25;;
4430;SDS011;2228;48.140;11.488;2023-02-28T01:32:08;7.88;;;4.00;;
4430;SDS011;2228;48.140;11.488;2023-02-28T01:34:35;8.45;;;4.30;;
4430;SDS011;2228;48.140;11.488;2023-02-28T01:37:02;5.60;;;4.23;;
4430;SDS011;2228;48.140;11.488;2023-02-28T01:39:31;6.93;;;3.97;;
4430;SDS011;2228;48.140;11.488;2023-02-28T01:41:58;5.32;;;3.80;;
4430;SDS011;2228;48.140;11.488;2023-02-28T01:47:24;6.00;;;4.13;;
4430;SDS011;2228;48.140;11.488;2023-02-28T01:49:54;6.38;;;4.30;;
4430;SDS011;2228;48.140;11.488;2023-02-28T01:52:21;7.53;;;4.90;;
4430;SDS011;2228;48.140;11.488;2023-02-28T01:54:52;6.05;;;4.15;;
4430;SDS011;2228;48.140;11.488;2023-02-28T01:57:22;7.25;;;4.40;;
4430;SDS011;2228;48.140;11.488;2023-02-28T01:59:54;7.35;;;4.55;;
4430;SDS011;2228;48.140;11.488;2023-02-28T02:02:25;6.05;;;4.20;;
4430;SDS011;2228;48.140;11.488;2023-02-28T02:04:55;9.50;;;4.40;;
4430;SDS011;2228;48.140;11.488;2023-02-28T02:07:26;5.85;;;4.53;;
4430;SDS011;2228;48.140;11.488;2023-02-28T02:10:04;5.88;;;3.90;;
4430;SDS011;2228;48.140;11.488;2023-02-28T02:12:37;5.43;;;3.92;;
4430;SDS011;2228;48.140;11.488;2023-02-28T02:15:20;7.03;;;4.10;;
4430;SDS011;2228;48.140;11.488;2023-02-28T02:17:53;7.10;;;5.07;;
4430;SDS011;2228;48.140;11.488;2023-02-28T02:26:41;9.05;;;4.68;;
4430;SDS011;2228;48.140;11.488;2023-02-28T02:32:34;7.35;;;4.68;;
4430;SDS011;2228;48.140;11.488;2023-02-28T02:35:13;9.73;;;4.45;;
4430;SDS011;2228;48.140;11.488;2023-02-28T02:37:43;9.68;;;5.10;;
4430;SDS011;2228;48.140;11.488;2023-02-28T02:40:17;7.20;;;4.30;;
4430;SDS011;2228;48.140;11.488;2023-02-28T02:42:49;9.65;;;4.93;;
4430;SDS011;2228;48.140;11.488;2023-02-28T02:45:23;9.27;;;4.97;;
4430;SDS011;2228;48.140;11.488;2023-02-28T02:47:52;8.68;;;4.75;;
4430;SDS011;2228;48.140;11.488;2023-02-28T02:50:24;7.50;;;4.40;;
4430;SDS011;2228;48.140;11.488;2023-02-28T02:52:56;8.90;;;4.65;;
4430;SDS011;2228;48.140;11.488;2023-02-28T02:55:28;6.97;;;4.47;;
4430;SDS011;2228;48.140;11.488;2023-02-28T02:57:58;5.60;;;4.50;;
4430;SDS011;2228;48.140;11.488;2023-02-28T03:00:29;9.60;;;5.50;;
4430;SDS011;2228;48.140;11.488;2023-02-28T03:03:01;8.70;;;4.88;;
4430;SDS011;2228;48.140;11.488;2023-02-28T03:05:30;8.05;;;4.75;;
4430;SDS011;2228;48.140;11.488;2023-02-28T03:08:05;8.68;;;5.22;;
4430;SDS011;2228;48.140;11.488;2023-02-28T03:10:34;8.25;;;5.18;;
4430;SDS011;2228;48.140;11.488;2023-02-28T03:13:11;9.60;;;5.40;;
4430;SDS011;2228;48.140;11.488;2023-02-28T03:15:58;6.60;;;4.40;;
4430;SDS011;2228;48.140;11.488;2023-02-28T03:18:49;8.88;;;5.03;;
4430;SDS011;2228;48.140;11.488;2023-02-28T03:21:27;10.23;;;5.20;;
4430;SDS011;2228;48.140;11.488;2023-02-28T03:24:02;9.65;;;5.50;;
4430;SDS011;2228;48.140;11.488;2023-02-28T03:26:32;9.13;;;5.25;;
4430;SDS011;2228;48.140;11.488;2023-02-28T03:29:03;8.70;;;5.30;;
4430;SDS011;2228;48.140;11.488;2023-02-28T03:31:33;11.02;;;5.55;;
4430;SDS011;2228;48.140;11.488;2023-02-28T03:34:06;8.60;;;5.57;;
4430;SDS011;2228;48.140;11.488;2023-02-28T03:36:38;9.05;;;5.10;;
4430;SDS011;2228;48.140;11.488;2023-02-28T03:39:11;10.90;;;6.35;;
4430;SDS011;2228;48.140;11.488;2023-02-28T03:41:41;10.80;;;6.07;;
4430;SDS011;2228;48.140;11.488;2023-02-28T03:44:16;9.23;;;5.78;;
4430;SDS011;2228;48.140;11.488;2023-02-28T03:46:46;11.38;;;6.60;;
4430;SDS011;2228;48.140;11.488;2023-02-28T03:49:20;10.85;;;6.65;;
4430;SDS011;2228;48.140;11.488;2023-02-28T03:51:52;11.60;;;6.25;;
4430;SDS011;2228;48.140;11.488;2023-02-28T03:54:23;10.18;;;6.65;;
4430;SDS011;2228;48.140;11.488;2023-02-28T03:56:54;11.43;;;7.10;;
4430;SDS011;2228;48.140;11.488;2023-02-28T03:59:27;9.65;;;6.40;;
4430;SDS011;2228;48.140;11.488;2023-02-28T04:01:59;14.35;;;6.60;;
4430;SDS011;2228;48.140;11.488;2023-02-28T04:04:27;11.38;;;6.85;;
4430;SDS011;2228;48.140;11.488;2023-02-28T04:07:02;11.27;;;7.22;;
4430;SDS011;2228;48.140;11.488;2023-02-28T04:09:30;11.82;;;7.35;;
4430;SDS011;2228;48.140;11.488;2023-02-28T04:11:58;14.52;;;7.43;;
4430;SDS011;2228;48.140;11.488;2023-02-28T04:14:26;11.90;;;7.57;;
4430;SDS011;2228;48.140;11.488;2023-02-28T04:16:53;13.90;;;7.73;;
4430;SDS011;2228;48.140;11.488;2023-02-28T04:19:20;11.98;;;7.40;;
4430;SDS011;2228;48.140;11.488;2023-02-28T04:21:48;11.82;;;7.38;;
4430;SDS011;2228;48.140;11.488;2023-02-28T04:24:18;11.40;;;6.80;;
4430;SDS011;2228;48.140;11.488;2023-02-28T04:26:46;12.07;;;7.03;;
4430;SDS011;2228;48.140;11.488;2023-02-28T04:29:18;9.77;;;6.07;;
4430;SDS011;2228;48.140;11.488;2023-02-28T04:31:46;13.18;;;7.50;;
4430;SDS011;2228;48.140;11.488;2023-02-28T04:34:13;11.23;;;7.00;;
4430;SDS011;2228;48.140;11.488;2023-02-28T04:36:40;13.20;;;8.00;;
4430;SDS011;2228;48.140;11.488;2023-02-28T04:39:07;12.45;;;7.78;;
4430;SDS011;2228;48.140;11.488;2023-02-28T04:41:36;11.77;;;7.30;;
4430;SDS011;2228;48.140;11.488;2023-02-28T04:44:04;12.17;;;7.13;;
4430;SDS011;2228;48.140;11.488;2023-02-28T04:46:31;12.32;;;7.50;;
4430;SDS011;2228;48.140;11.488;2023-02-28T04:48:58;12.33;;;7.47;;
4430;SDS011;2228;48.140;11.488;2023-02-28T04:51:26;11.95;;;7.38;;
4430;SDS011;2228;48.140;11.488;2023-02-28T04:53:53;18.20;;;10.03;;
4430;SDS011;2228;48.140;11.488;2023-02-28T04:56:20;14.43;;;8.45;;
4430;SDS011;2228;48.140;11.488;2023-02-28T04:58:48;13.00;;;7.75;;
4430;SDS011;2228;48.140;11.488;2023-02-28T05:01:19;14.07;;;7.90;;
4430;SDS011;2228;48.140;11.488;2023-02-28T05:03:48;10.95;;;7.15;;
4430;SDS011;2228;48.140;11.488;2023-02-28T05:06:15;15.65;;;8.20;;
4430;SDS011;2228;48.140;11.488;2023-02-28T05:08:43;13.07;;;7.85;;
4430;SDS011;2228;48.140;11.488;2023-02-28T05:11:13;14.02;;;8.35;;
4430;SDS011;2228;48.140;11.488;2023-02-28T05:13:42;14.57;;;8.20;;
4430;SDS011;2228;48.140;11.488;2023-02-28T05:16:10;14.68;;;9.43;;
4430;SDS011;2228;48.140;11.488;2023-02-28T05:18:37;16.45;;;9.70;;
4430;SDS011;2228;48.140;11.488;2023-02-28T05:21:05;15.63;;;8.70;;
4430;SDS011;2228;48.140;11.488;2023-02-28T05:23:32;15.45;;;8.80;;
4430;SDS011;2228;48.140;11.488;2023-02-28T05:25:59;15.25;;;9.50;;
4430;SDS011;2228;48.140;11.488;2023-02-28T05:28:27;17.63;;;9.43;;
4430;SDS011;2228;48.140;11.488;2023-02-28T05:30:54;15.27;;;9.50;;
4430;SDS011;2228;48.140;11.488;2023-02-28T05:33:22;18.60;;;10.50;;
4430;SDS011;2228;48.140;11.488;2023-02-28T05:35:49;16.95;;;9.95;;
4430;SDS011;2228;48.140;11.488;2023-02-28T05:38:16;16.70;;;9.68;;
4430;SDS011;2228;48.140;11.488;2023-02-28T05:40:43;17.80;;;10.30;;
4430;SDS011;2228;48.140;11.488;2023-02-28T05:43:10;18.60;;;10.23;;
4430;SDS011;2228;48.140;11.488;2023-02-28T05:45:37;14.57;;;9.57;;
4430;SDS011;2228;48.140;11.488;2023-02-28T05:48:05;16.63;;;10.70;;
4430;SDS011;2228;48.140;11.488;2023-02-28T05:50:33;19.02;;;10.88;;
4430;SDS011;2228;48.140;11.488;2023-02-28T05:53:01;15.55;;;9.95;;
4430;SDS011;2228;48.140;11.488;2023-02-28T05:55:28;17.15;;;10.93;;
4430;SDS011;2228;48.140;11.488;2023-02-28T05:57:55;19.42;;;11.38;;
4430;SDS011;2228;48.140;11.488;2023-02-28T06:00:22;17.90;;;10.60;;
4430;SDS011;2228;48.140;11.488;2023-02-28T06:02:49;18.85;;;11.30;;
4430;SDS011;2228;48.140;11.488;2023-02-28T06:05:18;17.58;;;10.68;;
4430;SDS011;2228;48.140;11.488;2023-02-28T06:07:47;16.13;;;9.52;;
4430;SDS011;2228;48.140;11.488;2023-02-28T06:10:14;18.90;;;11.33;;
4430;SDS011;2228;48.140;11.488;2023-02-28T06:12:41;19.40;;;11.27;;
4430;SDS011;2228;48.140;11.488;2023-02-28T06:15:10;17.50;;;11.30;;
4430;SDS011;2228;48.140;11.488;2023-02-28T06:17:39;20.20;;;11.27;;
4430;SDS011;2228;48.140;11.488;2023-02-28T06:20:07;17.57;;;11.30;;
4430;SDS011;2228;48.140;11.488;2023-02-28T06:22:35;21.65;;;11.57;;
4430;SDS011;2228;48.140;11.488;2023-02-28T06:25:04;23.65;;;11.88;;
4430;SDS011;2228;48.140;11.488;2023-02-28T06:27:32;22.70;;;12.40;;
4430;SDS011;2228;48.140;11.488;2023-02-28T06:29:59;19.40;;;11.48;;
4430;SDS011;2228;48.140;11.488;2023-02-28T06:32:26;18.80;;;11.88;;
4430;SDS011;2228;48.140;11.488;2023-02-28T06:34:53;20.38;;;11.90;;
4430;SDS011;2228;48.140;11.488;2023-02-28T06:37:22;21.48;;;12.85;;
4430;SDS011;2228;48.140;11.488;2023-02-28T06:39:51;20.45;;;12.98;;
4430;SDS011;2228;48.140;11.488;2023-02-28T06:42:19;21.00;;;12.68;;
4430;SDS011;2228;48.140;11.488;2023-02-28T06:44:47;22.23;;;12.80;;
4430;SDS011;2228;48.140;11.488;2023-02-28T06:47:14;21.85;;;12.98;;
4430;SDS011;2228;48.140;11.488;2023-02-28T06:49:40;19.85;;;12.65;;
4430;SDS011;2228;48.140;11.488;2023-02-28T06:52:07;22.25;;;13.90;;
4430;SDS011;2228;48.140;11.488;2023-02-28T06:54:36;23.73;;;13.90;;
4430;SDS011;2228;48.140;11.488;2023-02-28T06:57:02;26.48;;;14.90;;
4430;SDS011;2228;48.140;11.488;2023-02-28T06:59:31;24.85;;;15.10;;
4430;SDS011;2228;48.140;11.488;2023-02-28T07:01:58;25.05;;;13.10;;
4430;SDS011;2228;48.140;11.488;2023-02-28T07:04:26;24.07;;;14.07;;
4430;SDS011;2228;48.140;11.488;2023-02-28T07:06:53;22.60;;;13.53;;
4430;SDS011;2228;48.140;11.488;2023-02-28T07:09:21;22.23;;;13.68;;
4430;SDS011;2228;48.140;11.488;2023-02-28T07:11:48;24.42;;;13.70;;
4430;SDS011;2228;48.140;11.488;2023-02-28T07:14:15;22.75;;;13.85;;
4430;SDS011;2228;48.140;11.488;2023-02-28T07:16:43;24.25;;;13.98;;
4430;SDS011;2228;48.140;11.488;2023-02-28T07:19:11;21.35;;;13.13;;
4430;SDS011;2228;48.140;11.488;2023-02-28T07:21:37;23.25;;;13.57;;
4430;SDS011;2228;48.140;11.488;2023-02-28T07:24:06;24.30;;;13.80;;
4430;SDS011;2228;48.140;11.488;2023-02-28T07:26:33;23.35;;;13.65;;
4430;SDS011;2228;48.140;11.488;2023-02-28T07:29:00;19.77;;;13.38;;
4430;SDS011;2228;48.140;11.488;2023-02-28T07:31:27;24.05;;;15.13;;
4430;SDS011;2228;48.140;11.488;2023-02-28T07:33:55;21.73;;;13.55;;
4430;SDS011;2228;48.140;11.488;2023-02-28T07:36:22;22.10;;;13.30;;
4430;SDS011;2228;48.140;11.488;2023-02-28T07:38:49;21.83;;;13.35;;
4430;SDS011;2228;48.140;11.488;2023-02-28T07:41:16;20.67;;;12.55;;
4430;SDS011;2228;48.140;11.488;2023-02-28T07:43:44;21.00;;;13.60;;
4430;SDS011;2228;48.140;11.488;2023-02-28T07:46:12;22.53;;;13.50;;
4430;SDS011;2228;48.140;11.488;2023-02-28T07:48:41;25.23;;;14.60;;
4430;SDS011;2228;48.140;11.488;2023-02-28T07:51:09;22.67;;;13.83;;
4430;SDS011;2228;48.140;11.488;2023-02-28T07:53:36;24.05;;;14.20;;
4430;SDS011;2228;48.140;11.488;2023-02-28T07:56:03;24.35;;;14.38;;
4430;SDS011;2228;48.140;11.488;2023-02-28T07:58:31;22.15;;;14.05;;
4430;SDS011;2228;48.140;11.488;2023-02-28T08:01:04;22.73;;;12.98;;
4430;SDS011;2228;48.140;11.488;2023-02-28T08:03:31;22.67;;;13.38;;
4430;SDS011;2228;48.140;11.488;2023-02-28T08:05:58;20.48;;;13.40;;
4430;SDS011;2228;48.140;11.488;2023-02-28T08:08:28;22.25;;;14.18;;
4430;SDS011;2228;48.140;11.488;2023-02-28T08:10:57;23.92;;;14.60;;
4430;SDS011;2228;48.140;11.488;2023-02-28T08:13:26;23.15;;;13.98;;
4430;SDS011;2228;48.140;11.488;2023-02-28T08:15:54;24.05;;;13.23;;
4430;SDS011;2228;48.140;11.488;2023-02-28T08:18:21;27.00;;;14.82;;
4430;SDS011;2228;48.140;11.488;2023-02-28T08:20:48;24.20;;;13.73;;
4430;SDS011;2228;48.140;11.488;2023-02-28T08:23:15;20.23;;;13.75;;
4430;SDS011;2228;48.140;11.488;2023-02-28T08:25:43;21.02;;;13.52;;
4430;SDS011;2228;48.140;11.488;2023-02-28T08:28:10;26.02;;;13.55;;
4430;SDS011;2228;48.140;11.488;2023-02-28T08:30:37;23.17;;;13.43;;
4430;SDS011;2228;48.140;11.488;2023-02-28T08:33:06;19.23;;;12.68;;
4430;SDS011;2228;48.140;11.488;2023-02-28T08:35:35;19.98;;;13.70;;
4430;SDS011;2228;48.140;11.488;2023-02-28T08:38:02;20.80;;;12.90;;
4430;SDS011;2228;48.140;11.488;2023-02-28T08:40:29;21.20;;;13.50;;
4430;SDS011;2228;48.140;11.488;2023-02-28T08:42:57;20.67;;;12.83;;
4430;SDS011;2228;48.140;11.488;2023-02-28T08:45:24;23.33;;;14.00;;
4430;SDS011;2228;48.140;11.488;2023-02-28T08:47:51;19.95;;;13.32;;
4430;SDS011;2228;48.140;11.488;2023-02-28T08:50:21;20.40;;;12.60;;
4430;SDS011;2228;48.140;11.488;2023-02-28T08:52:48;22.70;;;12.93;;
4430;SDS011;2228;48.140;11.488;2023-02-28T08:55:15;21.10;;;12.63;;
4430;SDS011;2228;48.140;11.488;2023-02-28T08:57:42;20.50;;;13.32;;
4430;SDS011;2228;48.140;11.488;2023-02-28T09:00:11;22.27;;;13.10;;
4430;SDS011;2228;48.140;11.488;2023-02-28T09:02:39;21.17;;;14.20;;
4430;SDS011;2228;48.140;11.488;2023-02-28T09:05:08;22.48;;;13.80;;
4430;SDS011;2228;48.140;11.488;2023-02-28T09:07:35;22.92;;;13.60;;
4430;SDS011;2228;48.140;11.488;2023-02-28T09:10:02;23.80;;;13.95;;
4430;SDS011;2228;48.140;11.488;2023-02-28T09:12:31;22.38;;;14.13;;
4430;SDS011;2228;48.140;11.488;2023-02-28T09:14:59;24.10;;;12.95;;
4430;SDS011;2228;48.140;11.488;2023-02-28T09:17:28;22.80;;;12.90;;
4430;SDS011;2228;48.140;11.488;2023-02-28T09:19:55;22.58;;;12.93;;
4430;SDS011;2228;48.140;11.488;2023-02-28T09:22:22;20.58;;;13.45;;
4430;SDS011;2228;48.140;11.488;2023-02-28T09:24:49;23.73;;;13.25;;
4430;SDS011;2228;48.140;11.488;2023-02-28T09:27:16;20.33;;;12.70;;
4430;SDS011;2228;48.140;11.488;2023-02-28T09:29:43;21.52;;;13.38;;
4430;SDS011;2228;48.140;11.488;2023-02-28T09:32:09;21.10;;;12.37;;
4430;SDS011;2228;48.140;11.488;2023-02-28T09:34:38;19.13;;;11.70;;
4430;SDS011;2228;48.140;11.488;2023-02-28T09:37:05;18.63;;;12.82;;
4430;SDS011;2228;48.140;11.488;2023-02-28T09:39:32;20.65;;;12.23;;
4430;SDS011;2228;48.140;11.488;2023-02-28T09:41:59;17.15;;;12.20;;
4430;SDS011;2228;48.140;11.488;2023-02-28T09:44:29;16.38;;;12.00;;
4430;SDS011;2228;48.140;11.488;2023-02-28T09:47:00;20.73;;;12.73;;
4430;SDS011;2228;48.140;11.488;2023-02-28T09:49:36;19.35;;;13.30;;
4430;SDS011;2228;48.140;11.488;2023-02-28T09:52:09;18.83;;;12.57;;
4430;SDS011;2228;48.140;11.488;2023-02-28T09:54:38;16.98;;;11.82;;
4430;SDS011;2228;48.140;11.488;2023-02-28T09:57:06;18.58;;;11.85;;
4430;SDS011;2228;48.140;11.488;2023-02-28T09:59:40;18.02;;;12.52;;
4430;SDS011;2228;48.140;11.488;2023-02-28T10:02:19;19.58;;;11.25;;
4430;SDS011;2228;48.140;11.488;2023-02-28T10:05:04;18.70;;;11.95;;
4430;SDS011;2228;48.140;11.488;2023-02-28T10:07:38;15.95;;;11.45;;
4430;SDS011;2228;48.140;11.488;2023-02-28T10:10:18;16.77;;;11.27;;
4430;SDS011;2228;48.140;11.488;2023-02-28T10:12:50;21.23;;;12.07;;
4430;SDS011;2228;48.140;11.488;2023-02-28T10:15:20;20.35;;;12.60;;
4430;SDS011;2228;48.140;11.488;2023-02-28T10:17:51;18.23;;;11.00;;
4430;SDS011;2228;48.140;11.488;2023-02-28T10:20:23;20.13;;;11.80;;
4430;SDS011;2228;48.140;11.488;2023-02-28T10:23:00;17.13;;;11.68;;
4430;SDS011;2228;48.140;11.488;2023-02-28T10:25:33;15.75;;;11.05;;
4430;SDS011;2228;48.140;11.488;2023-02-28T10:28:01;18.20;;;12.00;;
4430;SDS011;2228;48.140;11.488;2023-02-28T10:30:36;20.05;;;11.55;;
4430;SDS011;2228;48.140;11.488;2023-02-28T10:33:08;15.02;;;11.30;;
4430;SDS011;2228;48.140;11.488;2023-02-28T10:35:45;16.98;;;10.85;;
4430;SDS011;2228;48.140;11.488;2023-02-28T10:38:15;18.58;;;12.23;;
4430;SDS011;2228;48.140;11.488;2023-02-28T10:40:44;16.60;;;12.30;;
4430;SDS011;2228;48.140;11.488;2023-02-28T10:43:21;20.48;;;13.18;;
4430;SDS011;2228;48.140;11.488;2023-02-28T10:45:53;24.55;;;14.27;;
4430;SDS011;2228;48.140;11.488;2023-02-28T10:48:31;23.80;;;13.48;;
4430;SDS011;2228;48.140;11.488;2023-02-28T10:51:01;21.30;;;13.88;;
4430;SDS011;2228;48.140;11.488;2023-02-28T10:56:17;15.45;;;10.93;;
4430;SDS011;2228;48.140;11.488;2023-02-28T10:58:51;18.77;;;12.25;;
4430;SDS011;2228;48.140;11.488;2023-02-28T11:01:20;15.30;;;11.50;;
4430;SDS011;2228;48.140;11.488;2023-02-28T11:03:49;16.73;;;11.75;;
4430;SDS011;2228;48.140;11.488;2023-02-28T11:06:19;16.58;;;11.00;;
4430;SDS011;2228;48.140;11.488;2023-02-28T11:08:48;18.20;;;11.43;;
4430;SDS011;2228;48.140;11.488;2023-02-28T11:11:18;15.80;;;11.80;;
4430;SDS011;2228;48.140;11.488;2023-02-28T11:13:46;16.63;;;11.60;;
4430;SDS011;2228;48.140;11.488;2023-02-28T11:16:16;18.00;;;11.60;;
4430;SDS011;2228;48.140;11.488;2023-02-28T11:18:46;27.98;;;16.83;;
4430;SDS011;2228;48.140;11.488;2023-02-28T11:21:15;18.52;;;12.00;;
4430;SDS011;2228;48.140;11.488;2023-02-28T11:23:49;21.02;;;13.50;;
4430;SDS011;2228;48.140;11.488;2023-02-28T11:29:12;16.83;;;11.00;;
4430;SDS011;2228;48.140;11.488;2023-02-28T11:31:55;16.55;;;10.80;;
4430;SDS011;2228;48.140;11.488;2023-02-28T11:34:29;16.48;;;10.55;;
4430;SDS011;2228;48.140;11.488;2023-02-28T11:36:59;17.52;;;10.20;;
4430;SDS011;2228;48.140;11.488;2023-02-28T11:39:33;15.88;;;10.48;;
4430;SDS011;2228;48.140;11.488;2023-02-28T11:45:15;15.48;;;10.88;;
4430;SDS011;2228;48.140;11.488;2023-02-28T11:48:04;15.15;;;10.50;;
4430;SDS011;2228;48.140;11.488;2023-02-28T11:50:50;17.98;;;11.60;;
4430;SDS011;2228;48.140;11.488;2023-02-28T11:53:28;18.95;;;10.80;;
4430;SDS011;2228;48.140;11.488;2023-02-28T11:56:25;18.70;;;10.98;;
4430;SDS011;2228;48.140;11.488;2023-02-28T11:59:01;18.02;;;11.50;;
4430;SDS011;2228;48.140;11.488;2023-02-28T12:01:38;18.33;;;10.70;;
4430;SDS011;2228;48.140;11.488;2023-02-28T12:04:24;16.63;;;11.00;;
4430;SDS011;2228;48.140;11.488;2023-02-28T12:07:00;17.17;;;11.47;;
4430;SDS011;2228;48.140;11.488;2023-02-28T12:09:43;15.55;;;11.07;;
4430;SDS011;2228;48.140;11.488;2023-02-28T12:12:20;16.40;;;11.65;;
4430;SDS011;2228;48.140;11.488;2023-02-28T12:15:05;14.23;;;10.40;;
4430;SDS011;2228;48.140;11.488;2023-02-28T12:17:57;17.00;;;11.05;;
4430;SDS011;2228;48.140;11.488;2023-02-28T12:20:37;19.75;;;10.63;;
4430;SDS011;2228;48.140;11.488;2023-02-28T12:23:19;16.35;;;11.07;;
4430;SDS011;2228;48.140;11.488;2023-02-28T12:26:06;14.32;;;10.13;;
4430;SDS011;2228;48.140;11.488;2023-02-28T12:28:40;15.95;;;10.10;;
4430;SDS011;2228;48.140;11.488;2023-02-28T12:31:14;17.08;;;10.00;;
4430;SDS011;2228;48.140;11.488;2023-02-28T12:33:45;14.32;;;9.68;;
4430;SDS011;2228;48.140;11.488;2023-02-28T12:36:17;14.10;;;8.93;;
4430;SDS011;2228;48.140;11.488;2023-02-28T12:38:47;18.40;;;10.73;;
4430;SDS011;2228;48.140;11.488;2023-02-28T12:41:22;15.50;;;10.82;;
4430;SDS011;2228;48.140;11.488;2023-02-28T12:43:55;15.45;;;10.40;;
4430;SDS011;2228;48.140;11.488;2023-02-28T12:46:28;16.00;;;10.90;;
4430;SDS011;2228;48.140;11.488;2023-02-28T12:49:00;13.93;;;10.38;;
4430;SDS011;2228;48.140;11.488;2023-02-28T12:51:31;16.17;;;10.60;;
4430;SDS011;2228;48.140;11.488;2023-02-28T12:54:04;15.25;;;10.00;;
4430;SDS011;2228;48.140;11.488;2023-02-28T12:56:44;14.02;;;9.50;;
4430;SDS011;2228;48.140;11.488;2023-02-28T12:59:18;14.75;;;10.43;;
4430;SDS011;2228;48.140;11.488;2023-02-28T13:04:59;17.95;;;10.60;;
4430;SDS011;2228;48.140;11.488;2023-02-28T13:10:57;16.70;;;10.50;;
4430;SDS011;2228;48.140;11.488;2023-02-28T13:13:26;17.70;;;10.57;;
4430;SDS011;2228;48.140;11.488;2023-02-28T13:16:00;14.52;;;10.60;;
4430;SDS011;2228;48.140;11.488;2023-02-28T13:18:31;16.92;;;11.35;;
4430;SDS011;2228;48.140;11.488;2023-02-28T13:21:01;15.15;;;10.07;;
4430;SDS011;2228;48.140;11.488;2023-02-28T13:23:38;12.00;;;8.63;;
4430;SDS011;2228;48.140;11.488;2023-02-28T13:29:31;15.68;;;9.80;;
4430;SDS011;2228;48.140;11.488;2023-02-28T13:35:13;14.43;;;9.57;;
4430;SDS011;2228;48.140;11.488;2023-02-28T13:37:42;16.02;;;10.07;;
4430;SDS011;2228;48.140;11.488;2023-02-28T13:40:29;14.77;;;9.85;;
4430;SDS011;2228;48.140;11.488;2023-02-28T13:43:02;15.33;;;10.20;;
4430;SDS011;2228;48.140;11.488;2023-02-28T13:45:36;16.83;;;9.80;;
4430;SDS011;2228;48.140;11.488;2023-02-28T13:48:05;15.65;;;10.30;;
4430;SDS011;2228;48.140;11.488;2023-02-28T13:50:43;12.98;;;10.00;;
4430;SDS011;2228;48.140;11.488;2023-02-28T13:56:21;17.08;;;10.27;;
4430;SDS011;2228;48.140;11.488;2023-02-28T13:59:14;14.10;;;9.93;;
4430;SDS011;2228;48.140;11.488;2023-02-28T14:01:55;15.10;;;9.77;;
4430;SDS011;2228;48.140;11.488;2023-02-28T14:04:39;14.10;;;9.73;;
4430;SDS011;2228;48.140;11.488;2023-02-28T14:07:23;15.98;;;9.50;;
4430;SDS011;2228;48.140;11.488;2023-02-28T14:09:58;15.00;;;9.52;;
4430;SDS011;2228;48.140;11.488;2023-02-28T14:12:51;13.10;;;9.80;;
4430;SDS011;2228;48.140;11.488;2023-02-28T14:15:27;14.48;;;9.70;;
4430;SDS011;2228;48.140;11.488;2023-02-28T14:18:20;16.92;;;10.40;;
4430;SDS011;2228;48.140;11.488;2023-02-28T14:20:52;15.00;;;10.18;;
4430;SDS011;2228;48.140;11.488;2023-02-28T14:23:33;15.68;;;11.02;;
4430;SDS011;2228;48.140;11.488;2023-02-28T14:26:13;18.85;;;11.10;;
4430;SDS011;2228;48.140;11.488;2023-02-28T14:28:56;12.13;;;9.10;;
4430;SDS011;2228;48.140;11.488;2023-02-28T14:31:36;15.15;;;9.13;;
4430;SDS011;2228;48.140;11.488;2023-02-28T14:34:16;15.02;;;10.60;;
4430;SDS011;2228;48.140;11.488;2023-02-28T14:36:52;17.90;;;10.65;;
4430;SDS011;2228;48.140;11.488;2023-02-28T14:39:21;12.32;;;9.40;;
4430;SDS011;2228;48.140;11.488;2023-02-28T14:41:51;15.33;;;10.27;;
4430;SDS011;2228;48.140;11.488;2023-02-28T14:44:19;14.77;;;9.15;;
4430;SDS011;2228;48.140;11.488;2023-02-28T14:46:48;12.57;;;9.05;;
4430;SDS011;2228;48.140;11.488;2023-02-28T14:49:20;14.15;;;9.38;;
4430;SDS011;2228;48.140;11.488;2023-02-28T14:51:49;13.25;;;9.70;;
4430;SDS011;2228;48.140;11.488;2023-02-28T14:54:27;12.48;;;9.73;;
4430;SDS011;2228;48.140;11.488;2023-02-28T14:56:58;13.35;;;10.10;;
4430;SDS011;2228;48.140;11.488;2023-02-28T14:59:30;14.03;;;9.60;;
4430;SDS011;2228;48.140;11.488;2023-02-28T15:02:18;15.82;;;9.80;;
4430;SDS011;2228;48.140;11.488;2023-02-28T15:04:54;14.73;;;10.20;;
4430;SDS011;2228;48.140;11.488;2023-02-28T15:07:23;13.45;;;9.95;;
4430;SDS011;2228;48.140;11.488;2023-02-28T15:10:10;14.73;;;9.70;;
4430;SDS011;2228;48.140;11.488;2023-02-28T15:12:40;14.23;;;9.43;;
4430;SDS011;2228;48.140;11.488;2023-02-28T15:15:17;13.65;;;9.30;;
4430;SDS011;2228;48.140;11.488;2023-02-28T15:17:46;14.70;;;8.88;;
4430;SDS011;2228;48.140;11.488;2023-02-28T15:20:20;13.57;;;9.50;;
4430;SDS011;2228;48.140;11.488;2023-02-28T15:22:47;14.80;;;9.13;;
4430;SDS011;2228;48.140;11.488;2023-02-28T15:25:21;15.65;;;10.57;;
4430;SDS011;2228;48.140;11.488;2023-02-28T15:27:49;13.23;;;9.43;;
4430;SDS011;2228;48.140;11.488;2023-02-28T15:30:20;16.77;;;11.10;;
4430;SDS011;2228;48.140;11.488;2023-02-28T15:33:03;15.43;;;10.70;;
4430;SDS011;2228;48.140;11.488;2023-02-28T15:35:35;15.85;;;10.13;;
4430;SDS011;2228;48.140;11.488;2023-02-28T15:38:03;13.18;;;9.90;;
4430;SDS011;2228;48.140;11.488;2023-02-28T15:40:40;12.48;;;9.55;;
4430;SDS011;2228;48.140;11.488;2023-02-28T15:43:13;13.77;;;9.43;;